Airfield :
LOGIN :

Register | Disclaimer

   EN    FR    IT 

 










Legend :    VFR   Marginal VFR   IFR   Intensive IFR   Very Intensive IFR
Visi :
Ceiling :
>= 8 km
>= 3000ft
5 to 8 km
1000 to 3000 ft
1500m to 5 km
500 to 1000 ft
800 to 1500m
200 to 500 ft
< 800m
< 200 ft
Symbols :   Thunderstorms  Fog  Heavy snow  Heavy precipitations  Wind > 20 kt
SIGMETs :     Misc.  Thunderstorms  Icing  Turbulence  Mountain Waves  Volcanic Ashes






- Airport Elevation : 83 ft
- IATA code : LHR


EGLL - London Heathrow

CURRENT METAR :
  • 180620Z AUTO 03005KT 340V060 9999 NCD 14/09 Q1014 NOSIG

EXPIRED METARs :
  • 180550Z AUTO 03007KT 350V060 9999 NCD 14/09 Q1014
  • 180520Z AUTO 02005KT 340V060 9999 NCD 14/09 Q1014
  • 180450Z AUTO 03005KT 9999 NCD 13/10 Q1014 NOSIG
  • 180420Z AUTO 03003KT 330V070 9999 NCD 13/10 Q1014
  • 180350Z AUTO 01003KT 330V040 9999 NCD 13/11 Q1013
  • 180320Z AUTO 36004KT 9999 NCD 14/11 Q1013
  • 180250Z AUTO 35002KT 9999 NCD 13/10 Q1013 NOSIG
  • 180220Z AUTO 32001KT 9999 NCD 13/10 Q1013 NOSIG
  • 180150Z AUTO 00000KT 9999 NCD 13/10 Q1013 NOSIG
  • 180120Z AUTO VRB02KT 9999 NCD 13/10 Q1013 NOSIG

TAF TAF EGLL
Valid from the 18 at 06:00 until the 19 at 12:00 UTC


180455Z 1806/1912 01007KT 9999 FEW040
PROB30
TEMPO 1814/1821 9000 -SHRA
PROB40
TEMPO 1900/1906 BKN010



MET'MAP, your aeronautical weather chart ! - Copyright ORBIFLY December 2007 - Disclaimer

ORBIFLY MET'MAP TEAM :

Programming & Development : Alexandra Zaïnal
Original concept : Baudouin d'Aumeries
Technical & hardware support : Manuel Goepfert
Assistance : Marc-Olivier Méhu




SOURCES & CREDITS :

   NOAA